sensor_id;sensor_type;location;lat;lon;timestamp;temperature;humidity
23715;DHT22;12036;50.858;4.472;2022-12-29T00:01:45;11.80;99.90
23715;DHT22;12036;50.858;4.472;2022-12-29T00:04:13;11.80;99.90
23715;DHT22;12036;50.858;4.472;2022-12-29T00:06:39;11.80;99.90
23715;DHT22;12036;50.858;4.472;2022-12-29T00:09:05;11.80;99.90
23715;DHT22;12036;50.858;4.472;2022-12-29T00:11:30;11.70;99.90
23715;DHT22;12036;50.858;4.472;2022-12-29T00:13:56;11.80;99.90
23715;DHT22;12036;50.858;4.472;2022-12-29T00:16:42;11.80;99.90
23715;DHT22;12036;50.858;4.472;2022-12-29T00:19:08;11.80;99.90
23715;DHT22;12036;50.858;4.472;2022-12-29T00:21:54;11.80;99.90
23715;DHT22;12036;50.858;4.472;2022-12-29T00:24:38;11.80;99.90
23715;DHT22;12036;50.858;4.472;2022-12-29T00:27:23;11.90;99.90
23715;DHT22;12036;50.858;4.472;2022-12-29T00:30:12;12.00;99.90
23715;DHT22;12036;50.858;4.472;2022-12-29T00:32:56;12.00;99.90
23715;DHT22;12036;50.858;4.472;2022-12-29T00:36:02;12.00;99.90
23715;DHT22;12036;50.858;4.472;2022-12-29T00:38:31;12.10;99.90
23715;DHT22;12036;50.858;4.472;2022-12-29T00:41:16;12.10;99.90
23715;DHT22;12036;50.858;4.472;2022-12-29T00:44:01;12.10;99.90
23715;DHT22;12036;50.858;4.472;2022-12-29T00:46:42;12.10;99.90
23715;DHT22;12036;50.858;4.472;2022-12-29T00:49:09;12.20;99.90
23715;DHT22;12036;50.858;4.472;2022-12-29T00:51:55;12.20;99.90
23715;DHT22;12036;50.858;4.472;2022-12-29T00:54:21;12.20;99.90
23715;DHT22;12036;50.858;4.472;2022-12-29T00:56:48;12.20;99.90
23715;DHT22;12036;50.858;4.472;2022-12-29T00:59:14;12.10;99.90
23715;DHT22;12036;50.858;4.472;2022-12-29T01:01:40;12.20;99.90
23715;DHT22;12036;50.858;4.472;2022-12-29T01:04:07;12.20;99.90
23715;DHT22;12036;50.858;4.472;2022-12-29T01:06:35;12.20;99.90
23715;DHT22;12036;50.858;4.472;2022-12-29T01:09:01;12.20;99.90
23715;DHT22;12036;50.858;4.472;2022-12-29T01:11:46;12.20;99.90
23715;DHT22;12036;50.858;4.472;2022-12-29T01:14:11;12.20;99.90
23715;DHT22;12036;50.858;4.472;2022-12-29T01:16:37;12.20;99.90
23715;DHT22;12036;50.858;4.472;2022-12-29T01:19:03;12.20;99.90
23715;DHT22;12036;50.858;4.472;2022-12-29T01:21:29;12.20;99.90
23715;DHT22;12036;50.858;4.472;2022-12-29T01:23:55;12.00;99.90
23715;DHT22;12036;50.858;4.472;2022-12-29T01:26:20;11.90;99.90
23715;DHT22;12036;50.858;4.472;2022-12-29T01:28:46;11.80;99.90
23715;DHT22;12036;50.858;4.472;2022-12-29T01:31:13;11.70;99.90
23715;DHT22;12036;50.858;4.472;2022-12-29T01:33:40;11.60;99.90
23715;DHT22;12036;50.858;4.472;2022-12-29T01:36:08;11.50;99.90
23715;DHT22;12036;50.858;4.472;2022-12-29T01:38:35;11.50;99.90
23715;DHT22;12036;50.858;4.472;2022-12-29T01:41:02;11.40;99.90
23715;DHT22;12036;50.858;4.472;2022-12-29T01:48:54;11.20;99.90
23715;DHT22;12036;50.858;4.472;2022-12-29T01:51:22;11.20;99.90
23715;DHT22;12036;50.858;4.472;2022-12-29T01:53:49;11.20;99.90
23715;DHT22;12036;50.858;4.472;2022-12-29T01:56:17;11.20;99.90
23715;DHT22;12036;50.858;4.472;2022-12-29T01:58:47;11.10;99.90
23715;DHT22;12036;50.858;4.472;2022-12-29T02:01:16;11.10;99.90
23715;DHT22;12036;50.858;4.472;2022-12-29T02:03:43;11.20;99.90
23715;DHT22;12036;50.858;4.472;2022-12-29T02:06:22;11.10;99.90
23715;DHT22;12036;50.858;4.472;2022-12-29T02:08:52;11.20;99.90
23715;DHT22;12036;50.858;4.472;2022-12-29T02:11:19;11.30;99.90
23715;DHT22;12036;50.858;4.472;2022-12-29T02:13:46;11.30;99.90
23715;DHT22;12036;50.858;4.472;2022-12-29T02:21:45;11.10;99.90
23715;DHT22;12036;50.858;4.472;2022-12-29T02:38:20;10.80;99.90
23715;DHT22;12036;50.858;4.472;2022-12-29T02:41:21;10.70;99.90
23715;DHT22;12036;50.858;4.472;2022-12-29T02:44:03;10.50;99.90
23715;DHT22;12036;50.858;4.472;2022-12-29T02:46:41;10.60;99.90
23715;DHT22;12036;50.858;4.472;2022-12-29T02:49:18;10.60;99.90
23715;DHT22;12036;50.858;4.472;2022-12-29T02:54:18;10.20;99.90
23715;DHT22;12036;50.858;4.472;2022-12-29T02:57:02;10.20;99.90
23715;DHT22;12036;50.858;4.472;2022-12-29T02:59:29;10.00;99.90
23715;DHT22;12036;50.858;4.472;2022-12-29T03:02:19;9.90;99.90
23715;DHT22;12036;50.858;4.472;2022-12-29T03:13:47;9.90;99.90
23715;DHT22;12036;50.858;4.472;2022-12-29T03:19:28;9.90;99.90
23715;DHT22;12036;50.858;4.472;2022-12-29T03:21:59;9.90;99.90
23715;DHT22;12036;50.858;4.472;2022-12-29T03:24:47;9.90;99.90
23715;DHT22;12036;50.858;4.472;2022-12-29T03:27:18;9.80;99.90
23715;DHT22;12036;50.858;4.472;2022-12-29T03:29:51;9.90;99.90
23715;DHT22;12036;50.858;4.472;2022-12-29T03:32:20;9.80;99.90
23715;DHT22;12036;50.858;4.472;2022-12-29T03:34:48;9.80;99.90
23715;DHT22;12036;50.858;4.472;2022-12-29T03:37:17;9.80;99.90
23715;DHT22;12036;50.858;4.472;2022-12-29T03:39:44;9.70;99.90
23715;DHT22;12036;50.858;4.472;2022-12-29T03:42:14;9.70;99.90
23715;DHT22;12036;50.858;4.472;2022-12-29T03:44:43;9.70;99.90
23715;DHT22;12036;50.858;4.472;2022-12-29T03:47:14;9.70;99.90
23715;DHT22;12036;50.858;4.472;2022-12-29T03:49:41;9.70;99.90
23715;DHT22;12036;50.858;4.472;2022-12-29T03:52:06;9.70;99.90
23715;DHT22;12036;50.858;4.472;2022-12-29T03:54:32;9.80;99.90
23715;DHT22;12036;50.858;4.472;2022-12-29T03:56:58;9.70;99.90
23715;DHT22;12036;50.858;4.472;2022-12-29T03:59:24;9.70;99.90
23715;DHT22;12036;50.858;4.472;2022-12-29T04:01:49;9.80;99.90
23715;DHT22;12036;50.858;4.472;2022-12-29T04:04:15;9.80;99.90
23715;DHT22;12036;50.858;4.472;2022-12-29T04:06:41;9.80;99.90
23715;DHT22;12036;50.858;4.472;2022-12-29T04:09:06;9.90;99.90
23715;DHT22;12036;50.858;4.472;2022-12-29T04:11:32;9.90;99.90
23715;DHT22;12036;50.858;4.472;2022-12-29T04:13:58;9.90;99.90
23715;DHT22;12036;50.858;4.472;2022-12-29T04:16:24;9.90;99.90
23715;DHT22;12036;50.858;4.472;2022-12-29T04:18:49;9.80;99.90
23715;DHT22;12036;50.858;4.472;2022-12-29T04:21:15;9.70;99.90
23715;DHT22;12036;50.858;4.472;2022-12-29T04:23:41;9.80;99.90
23715;DHT22;12036;50.858;4.472;2022-12-29T04:26:07;9.70;99.90
23715;DHT22;12036;50.858;4.472;2022-12-29T04:28:34;9.60;99.90
23715;DHT22;12036;50.858;4.472;2022-12-29T04:31:00;9.60;99.90
23715;DHT22;12036;50.858;4.472;2022-12-29T04:33:26;9.50;99.90
23715;DHT22;12036;50.858;4.472;2022-12-29T04:35:53;9.60;99.90
23715;DHT22;12036;50.858;4.472;2022-12-29T04:38:20;9.50;99.90
23715;DHT22;12036;50.858;4.472;2022-12-29T04:40:45;9.50;99.90
23715;DHT22;12036;50.858;4.472;2022-12-29T04:43:12;9.50;99.90
23715;DHT22;12036;50.858;4.472;2022-12-29T04:45:38;9.40;99.90
23715;DHT22;12036;50.858;4.472;2022-12-29T04:48:04;9.50;99.90
23715;DHT22;12036;50.858;4.472;2022-12-29T04:50:30;9.60;99.90
23715;DHT22;12036;50.858;4.472;2022-12-29T04:52:56;9.70;99.90
23715;DHT22;12036;50.858;4.472;2022-12-29T04:55:21;9.70;99.90
23715;DHT22;12036;50.858;4.472;2022-12-29T04:57:47;9.80;99.90
23715;DHT22;12036;50.858;4.472;2022-12-29T05:00:13;9.90;99.90
23715;DHT22;12036;50.858;4.472;2022-12-29T05:02:39;10.00;99.90
23715;DHT22;12036;50.858;4.472;2022-12-29T05:05:05;10.00;99.90
23715;DHT22;12036;50.858;4.472;2022-12-29T05:07:31;10.10;99.90
23715;DHT22;12036;50.858;4.472;2022-12-29T05:09:58;10.20;99.90
23715;DHT22;12036;50.858;4.472;2022-12-29T05:12:24;10.10;99.90
23715;DHT22;12036;50.858;4.472;2022-12-29T05:14:50;10.20;99.90
23715;DHT22;12036;50.858;4.472;2022-12-29T05:17:15;10.30;99.90
23715;DHT22;12036;50.858;4.472;2022-12-29T05:19:41;10.20;99.90
23715;DHT22;12036;50.858;4.472;2022-12-29T05:22:07;10.10;99.90
23715;DHT22;12036;50.858;4.472;2022-12-29T05:24:32;10.10;99.90
23715;DHT22;12036;50.858;4.472;2022-12-29T05:26:58;10.20;99.90
23715;DHT22;12036;50.858;4.472;2022-12-29T05:29:23;10.20;99.90
23715;DHT22;12036;50.858;4.472;2022-12-29T05:31:49;10.20;99.90
23715;DHT22;12036;50.858;4.472;2022-12-29T05:34:15;10.20;99.90
23715;DHT22;12036;50.858;4.472;2022-12-29T05:36:40;10.20;99.90
23715;DHT22;12036;50.858;4.472;2022-12-29T05:39:06;10.20;99.90
23715;DHT22;12036;50.858;4.472;2022-12-29T05:41:35;10.10;99.90
23715;DHT22;12036;50.858;4.472;2022-12-29T05:44:00;10.10;99.90
23715;DHT22;12036;50.858;4.472;2022-12-29T05:46:26;10.20;99.90
23715;DHT22;12036;50.858;4.472;2022-12-29T05:48:52;10.20;99.90
23715;DHT22;12036;50.858;4.472;2022-12-29T05:51:17;10.20;99.90
23715;DHT22;12036;50.858;4.472;2022-12-29T05:53:43;10.20;99.90
23715;DHT22;12036;50.858;4.472;2022-12-29T05:56:09;10.10;99.90
23715;DHT22;12036;50.858;4.472;2022-12-29T05:58:34;10.10;99.90
23715;DHT22;12036;50.858;4.472;2022-12-29T06:01:00;10.00;99.90
23715;DHT22;12036;50.858;4.472;2022-12-29T06:03:25;10.10;99.90
23715;DHT22;12036;50.858;4.472;2022-12-29T06:05:51;10.00;99.90
23715;DHT22;12036;50.858;4.472;2022-12-29T06:08:17;9.90;99.90
23715;DHT22;12036;50.858;4.472;2022-12-29T06:10:42;9.90;99.90
23715;DHT22;12036;50.858;4.472;2022-12-29T06:13:08;10.10;99.90
23715;DHT22;12036;50.858;4.472;2022-12-29T06:15:34;10.10;99.90
23715;DHT22;12036;50.858;4.472;2022-12-29T06:18:00;10.10;99.90
23715;DHT22;12036;50.858;4.472;2022-12-29T06:20:26;10.10;99.90
23715;DHT22;12036;50.858;4.472;2022-12-29T06:22:52;10.20;99.90
23715;DHT22;12036;50.858;4.472;2022-12-29T06:25:17;10.20;99.90
23715;DHT22;12036;50.858;4.472;2022-12-29T06:27:43;10.10;99.90
23715;DHT22;12036;50.858;4.472;2022-12-29T06:30:10;10.00;99.90
23715;DHT22;12036;50.858;4.472;2022-12-29T06:32:36;10.00;99.90
23715;DHT22;12036;50.858;4.472;2022-12-29T06:35:03;9.80;99.90
23715;DHT22;12036;50.858;4.472;2022-12-29T06:37:29;9.90;99.90
23715;DHT22;12036;50.858;4.472;2022-12-29T06:39:54;9.90;99.90
23715;DHT22;12036;50.858;4.472;2022-12-29T06:42:20;10.10;99.90
23715;DHT22;12036;50.858;4.472;2022-12-29T06:44:46;10.00;99.90
23715;DHT22;12036;50.858;4.472;2022-12-29T06:47:11;10.00;99.90
23715;DHT22;12036;50.858;4.472;2022-12-29T06:49:37;10.10;99.90
23715;DHT22;12036;50.858;4.472;2022-12-29T06:52:03;10.00;99.90
23715;DHT22;12036;50.858;4.472;2022-12-29T06:54:30;10.20;99.90
23715;DHT22;12036;50.858;4.472;2022-12-29T06:56:56;10.30;99.90
23715;DHT22;12036;50.858;4.472;2022-12-29T06:59:22;10.20;99.90
23715;DHT22;12036;50.858;4.472;2022-12-29T07:01:48;10.30;99.90
23715;DHT22;12036;50.858;4.472;2022-12-29T07:04:13;10.40;99.90
23715;DHT22;12036;50.858;4.472;2022-12-29T07:06:39;10.50;99.90
23715;DHT22;12036;50.858;4.472;2022-12-29T07:09:06;10.40;99.90
23715;DHT22;12036;50.858;4.472;2022-12-29T07:11:32;10.40;99.90
23715;DHT22;12036;50.858;4.472;2022-12-29T07:13:58;10.40;99.90
23715;DHT22;12036;50.858;4.472;2022-12-29T07:16:24;10.40;99.90
23715;DHT22;12036;50.858;4.472;2022-12-29T07:18:51;10.20;99.90
23715;DHT22;12036;50.858;4.472;2022-12-29T07:21:17;10.40;99.90
23715;DHT22;12036;50.858;4.472;2022-12-29T07:23:43;10.30;99.90
23715;DHT22;12036;50.858;4.472;2022-12-29T07:26:11;10.20;99.90
23715;DHT22;12036;50.858;4.472;2022-12-29T07:28:37;10.20;99.90
23715;DHT22;12036;50.858;4.472;2022-12-29T07:31:04;10.20;99.90
23715;DHT22;12036;50.858;4.472;2022-12-29T07:33:30;10.30;99.90
23715;DHT22;12036;50.858;4.472;2022-12-29T07:35:56;10.40;99.90
23715;DHT22;12036;50.858;4.472;2022-12-29T07:38:22;10.20;99.90
23715;DHT22;12036;50.858;4.472;2022-12-29T07:40:48;10.20;99.90
23715;DHT22;12036;50.858;4.472;2022-12-29T07:43:13;10.10;99.90
23715;DHT22;12036;50.858;4.472;2022-12-29T07:45:40;10.10;99.90
23715;DHT22;12036;50.858;4.472;2022-12-29T07:48:05;10.00;99.90
23715;DHT22;12036;50.858;4.472;2022-12-29T07:50:34;10.20;99.90
23715;DHT22;12036;50.858;4.472;2022-12-29T07:52:59;10.20;99.90
23715;DHT22;12036;50.858;4.472;2022-12-29T07:55:25;10.20;99.90
23715;DHT22;12036;50.858;4.472;2022-12-29T07:57:53;10.20;99.90
23715;DHT22;12036;50.858;4.472;2022-12-29T08:00:19;10.40;99.90
23715;DHT22;12036;50.858;4.472;2022-12-29T08:02:45;10.20;99.90
23715;DHT22;12036;50.858;4.472;2022-12-29T08:05:10;10.20;99.90
23715;DHT22;12036;50.858;4.472;2022-12-29T08:07:36;10.00;99.90
23715;DHT22;12036;50.858;4.472;2022-12-29T08:10:02;10.00;99.90
23715;DHT22;12036;50.858;4.472;2022-12-29T08:12:28;10.10;99.90
23715;DHT22;12036;50.858;4.472;2022-12-29T08:14:54;10.00;99.90
23715;DHT22;12036;50.858;4.472;2022-12-29T08:17:19;9.80;99.90
23715;DHT22;12036;50.858;4.472;2022-12-29T08:19:45;9.60;99.90
23715;DHT22;12036;50.858;4.472;2022-12-29T08:22:11;9.70;99.90
23715;DHT22;12036;50.858;4.472;2022-12-29T08:24:36;9.90;99.90
23715;DHT22;12036;50.858;4.472;2022-12-29T08:27:02;10.10;99.90
23715;DHT22;12036;50.858;4.472;2022-12-29T08:29:27;10.00;99.90
23715;DHT22;12036;50.858;4.472;2022-12-29T08:31:53;10.10;99.90
23715;DHT22;12036;50.858;4.472;2022-12-29T08:34:19;10.30;99.90
23715;DHT22;12036;50.858;4.472;2022-12-29T08:36:44;10.30;99.90
23715;DHT22;12036;50.858;4.472;2022-12-29T08:39:10;10.10;99.90
23715;DHT22;12036;50.858;4.472;2022-12-29T08:41:36;10.30;99.90
23715;DHT22;12036;50.858;4.472;2022-12-29T08:44:01;10.00;99.90
23715;DHT22;12036;50.858;4.472;2022-12-29T08:46:27;10.10;99.90
23715;DHT22;12036;50.858;4.472;2022-12-29T08:48:53;10.00;99.90
23715;DHT22;12036;50.858;4.472;2022-12-29T08:51:19;10.10;99.90
23715;DHT22;12036;50.858;4.472;2022-12-29T08:53:45;10.10;99.90
23715;DHT22;12036;50.858;4.472;2022-12-29T08:56:11;10.10;99.90
23715;DHT22;12036;50.858;4.472;2022-12-29T08:58:37;10.20;99.90
23715;DHT22;12036;50.858;4.472;2022-12-29T09:01:02;10.20;99.90
23715;DHT22;12036;50.858;4.472;2022-12-29T09:03:28;10.20;99.90
23715;DHT22;12036;50.858;4.472;2022-12-29T09:05:55;10.20;99.90
23715;DHT22;12036;50.858;4.472;2022-12-29T09:08:22;10.00;99.90
23715;DHT22;12036;50.858;4.472;2022-12-29T09:10:48;10.10;99.90
23715;DHT22;12036;50.858;4.472;2022-12-29T09:13:14;10.20;99.90
23715;DHT22;12036;50.858;4.472;2022-12-29T09:15:40;10.00;99.90
23715;DHT22;12036;50.858;4.472;2022-12-29T09:18:06;9.90;99.90
23715;DHT22;12036;50.858;4.472;2022-12-29T09:20:32;10.10;99.90
23715;DHT22;12036;50.858;4.472;2022-12-29T09:22:59;10.20;99.90
23715;DHT22;12036;50.858;4.472;2022-12-29T09:25:24;10.20;99.90
23715;DHT22;12036;50.858;4.472;2022-12-29T09:27:51;10.20;99.90
23715;DHT22;12036;50.858;4.472;2022-12-29T09:30:19;10.30;99.90
23715;DHT22;12036;50.858;4.472;2022-12-29T09:32:46;10.20;99.90
23715;DHT22;12036;50.858;4.472;2022-12-29T09:35:13;10.10;99.90
23715;DHT22;12036;50.858;4.472;2022-12-29T09:37:38;10.30;99.90
23715;DHT22;12036;50.858;4.472;2022-12-29T09:40:05;10.10;99.90
23715;DHT22;12036;50.858;4.472;2022-12-29T09:42:54;10.10;99.90
23715;DHT22;12036;50.858;4.472;2022-12-29T09:45:29;10.30;99.90
23715;DHT22;12036;50.858;4.472;2022-12-29T09:47:57;10.30;99.90
23715;DHT22;12036;50.858;4.472;2022-12-29T09:50:28;10.20;99.90
23715;DHT22;12036;50.858;4.472;2022-12-29T09:55:45;10.50;99.90
23715;DHT22;12036;50.858;4.472;2022-12-29T09:58:20;10.30;99.90
23715;DHT22;12036;50.858;4.472;2022-12-29T10:03:54;10.40;99.90
23715;DHT22;12036;50.858;4.472;2022-12-29T10:09:41;10.60;99.90
23715;DHT22;12036;50.858;4.472;2022-12-29T10:12:40;10.60;99.90
23715;DHT22;12036;50.858;4.472;2022-12-29T10:18:06;10.50;99.90
23715;DHT22;12036;50.858;4.472;2022-12-29T10:20:56;10.50;99.90
23715;DHT22;12036;50.858;4.472;2022-12-29T10:23:27;10.80;99.90
23715;DHT22;12036;50.858;4.472;2022-12-29T10:25:56;10.90;99.90
23715;DHT22;12036;50.858;4.472;2022-12-29T10:28:24;10.80;99.90
23715;DHT22;12036;50.858;4.472;2022-12-29T10:30:53;10.90;99.90
23715;DHT22;12036;50.858;4.472;2022-12-29T10:33:23;10.80;99.90
23715;DHT22;12036;50.858;4.472;2022-12-29T10:35:51;10.70;99.90
23715;DHT22;12036;50.858;4.472;2022-12-29T10:43:45;11.10;99.90
23715;DHT22;12036;50.858;4.472;2022-12-29T10:46:15;11.10;99.90
23715;DHT22;12036;50.858;4.472;2022-12-29T10:48:41;11.20;99.90
23715;DHT22;12036;50.858;4.472;2022-12-29T10:51:11;10.90;99.90
23715;DHT22;12036;50.858;4.472;2022-12-29T10:53:47;10.80;99.90
23715;DHT22;12036;50.858;4.472;2022-12-29T10:56:39;10.80;99.90
23715;DHT22;12036;50.858;4.472;2022-12-29T11:04:43;10.90;99.90
23715;DHT22;12036;50.858;4.472;2022-12-29T11:07:12;11.00;99.90
23715;DHT22;12036;50.858;4.472;2022-12-29T11:09:41;11.10;99.90
23715;DHT22;12036;50.858;4.472;2022-12-29T11:12:30;11.30;99.90
23715;DHT22;12036;50.858;4.472;2022-12-29T11:15:15;11.40;99.90
23715;DHT22;12036;50.858;4.472;2022-12-29T11:17:49;11.50;99.90
23715;DHT22;12036;50.858;4.472;2022-12-29T11:20:38;11.50;99.90
23715;DHT22;12036;50.858;4.472;2022-12-29T11:23:21;11.60;99.90
23715;DHT22;12036;50.858;4.472;2022-12-29T11:25:51;11.80;99.90
23715;DHT22;12036;50.858;4.472;2022-12-29T11:28:30;11.70;99.90
23715;DHT22;12036;50.858;4.472;2022-12-29T11:31:01;11.60;99.90
23715;DHT22;12036;50.858;4.472;2022-12-29T11:33:28;11.70;99.90
23715;DHT22;12036;50.858;4.472;2022-12-29T11:36:19;11.70;99.90
23715;DHT22;12036;50.858;4.472;2022-12-29T11:38:51;11.70;99.90
23715;DHT22;12036;50.858;4.472;2022-12-29T11:41:22;11.60;99.90
23715;DHT22;12036;50.858;4.472;2022-12-29T11:43:48;11.60;99.90
23715;DHT22;12036;50.858;4.472;2022-12-29T11:46:17;11.50;99.90
23715;DHT22;12036;50.858;4.472;2022-12-29T11:48:46;11.40;99.90
23715;DHT22;12036;50.858;4.472;2022-12-29T11:51:20;11.40;99.90
23715;DHT22;12036;50.858;4.472;2022-12-29T11:53:49;11.30;99.90
23715;DHT22;12036;50.858;4.472;2022-12-29T11:56:32;11.20;99.90
23715;DHT22;12036;50.858;4.472;2022-12-29T11:58:58;11.20;99.90
23715;DHT22;12036;50.858;4.472;2022-12-29T12:01:45;11.10;99.90
23715;DHT22;12036;50.858;4.472;2022-12-29T12:04:15;11.00;99.90
23715;DHT22;12036;50.858;4.472;2022-12-29T12:06:46;11.00;99.90
23715;DHT22;12036;50.858;4.472;2022-12-29T12:09:22;11.00;99.90
23715;DHT22;12036;50.858;4.472;2022-12-29T12:11:52;11.00;99.90
23715;DHT22;12036;50.858;4.472;2022-12-29T12:14:35;11.00;99.90
23715;DHT22;12036;50.858;4.472;2022-12-29T12:17:09;11.00;99.90
23715;DHT22;12036;50.858;4.472;2022-12-29T12:19:58;11.00;99.90
23715;DHT22;12036;50.858;4.472;2022-12-29T12:30:40;11.00;99.90
23715;DHT22;12036;50.858;4.472;2022-12-29T12:33:18;11.10;99.90
23715;DHT22;12036;50.858;4.472;2022-12-29T12:39:27;11.00;99.90
23715;DHT22;12036;50.858;4.472;2022-12-29T12:48:27;10.90;99.90
23715;DHT22;12036;50.858;4.472;2022-12-29T12:51:18;10.90;99.90
23715;DHT22;12036;50.858;4.472;2022-12-29T12:54:01;11.00;99.90
23715;DHT22;12036;50.858;4.472;2022-12-29T12:57:13;11.00;99.90
23715;DHT22;12036;50.858;4.472;2022-12-29T12:59:55;11.10;99.90
23715;DHT22;12036;50.858;4.472;2022-12-29T13:02:54;11.20;99.90
23715;DHT22;12036;50.858;4.472;2022-12-29T13:11:05;11.10;99.90
23715;DHT22;12036;50.858;4.472;2022-12-29T13:16:48;11.10;99.90
23715;DHT22;12036;50.858;4.472;2022-12-29T13:33:44;11.20;99.90
23715;DHT22;12036;50.858;4.472;2022-12-29T13:36:22;11.20;99.90
23715;DHT22;12036;50.858;4.472;2022-12-29T13:38:56;11.30;99.90
23715;DHT22;12036;50.858;4.472;2022-12-29T13:41:32;11.30;99.90
23715;DHT22;12036;50.858;4.472;2022-12-29T13:44:02;11.30;99.90
23715;DHT22;12036;50.858;4.472;2022-12-29T13:46:33;11.20;99.90
23715;DHT22;12036;50.858;4.472;2022-12-29T13:49:17;11.10;99.90
23715;DHT22;12036;50.858;4.472;2022-12-29T13:51:52;11.00;99.90
23715;DHT22;12036;50.858;4.472;2022-12-29T14:00:03;11.00;99.90
23715;DHT22;12036;50.858;4.472;2022-12-29T14:02:37;10.80;99.90
23715;DHT22;12036;50.858;4.472;2022-12-29T14:07:46;10.60;99.90
23715;DHT22;12036;50.858;4.472;2022-12-29T14:10:45;10.60;99.90
23715;DHT22;12036;50.858;4.472;2022-12-29T14:13:31;10.60;99.90
23715;DHT22;12036;50.858;4.472;2022-12-29T14:16:02;10.50;99.90
23715;DHT22;12036;50.858;4.472;2022-12-29T14:18:32;10.50;99.90
23715;DHT22;12036;50.858;4.472;2022-12-29T14:20:59;10.40;99.90
23715;DHT22;12036;50.858;4.472;2022-12-29T14:28:39;10.60;99.90
23715;DHT22;12036;50.858;4.472;2022-12-29T14:33:41;10.70;99.90
23715;DHT22;12036;50.858;4.472;2022-12-29T14:38:59;10.80;99.90
23715;DHT22;12036;50.858;4.472;2022-12-29T14:41:29;10.80;99.90
23715;DHT22;12036;50.858;4.472;2022-12-29T14:49:31;10.70;99.90
23715;DHT22;12036;50.858;4.472;2022-12-29T14:52:23;10.80;99.90
23715;DHT22;12036;50.858;4.472;2022-12-29T14:58:00;11.00;99.90
23715;DHT22;12036;50.858;4.472;2022-12-29T15:00:33;10.90;99.90
23715;DHT22;12036;50.858;4.472;2022-12-29T15:05:53;10.60;99.90
23715;DHT22;12036;50.858;4.472;2022-12-29T15:08:22;10.30;99.90
23715;DHT22;12036;50.858;4.472;2022-12-29T15:13:38;10.00;99.90
23715;DHT22;12036;50.858;4.472;2022-12-29T15:16:24;9.90;99.90
23715;DHT22;12036;50.858;4.472;2022-12-29T15:18:50;9.70;99.90
23715;DHT22;12036;50.858;4.472;2022-12-29T15:21:16;9.50;99.90
23715;DHT22;12036;50.858;4.472;2022-12-29T15:23:45;9.10;99.90
23715;DHT22;12036;50.858;4.472;2022-12-29T15:26:11;8.90;99.90
23715;DHT22;12036;50.858;4.472;2022-12-29T15:28:49;8.80;99.90
23715;DHT22;12036;50.858;4.472;2022-12-29T15:33:48;8.50;99.90
23715;DHT22;12036;50.858;4.472;2022-12-29T15:36:26;8.40;99.90
23715;DHT22;12036;50.858;4.472;2022-12-29T15:38:52;8.30;99.90
23715;DHT22;12036;50.858;4.472;2022-12-29T15:41:33;8.20;99.90
23715;DHT22;12036;50.858;4.472;2022-12-29T15:44:24;8.20;99.90
23715;DHT22;12036;50.858;4.472;2022-12-29T15:46:51;8.10;99.90
23715;DHT22;12036;50.858;4.472;2022-12-29T15:49:17;8.00;99.90
23715;DHT22;12036;50.858;4.472;2022-12-29T15:51:43;7.90;99.90
23715;DHT22;12036;50.858;4.472;2022-12-29T15:54:17;7.90;99.90
23715;DHT22;12036;50.858;4.472;2022-12-29T15:56:44;7.80;99.90
23715;DHT22;12036;50.858;4.472;2022-12-29T15:59:33;7.70;99.90
23715;DHT22;12036;50.858;4.472;2022-12-29T16:02:01;7.80;99.90
23715;DHT22;12036;50.858;4.472;2022-12-29T16:04:29;8.00;99.90
23715;DHT22;12036;50.858;4.472;2022-12-29T16:07:01;8.10;99.90
23715;DHT22;12036;50.858;4.472;2022-12-29T16:12:03;8.00;99.90
23715;DHT22;12036;50.858;4.472;2022-12-29T16:14:36;8.00;99.90
23715;DHT22;12036;50.858;4.472;2022-12-29T16:17:03;7.90;99.90
23715;DHT22;12036;50.858;4.472;2022-12-29T16:19:39;7.80;99.90
23715;DHT22;12036;50.858;4.472;2022-12-29T16:22:12;7.80;99.90
23715;DHT22;12036;50.858;4.472;2022-12-29T16:24:41;7.90;99.90
23715;DHT22;12036;50.858;4.472;2022-12-29T16:27:21;8.00;99.90
23715;DHT22;12036;50.858;4.472;2022-12-29T16:29:51;7.90;99.90
23715;DHT22;12036;50.858;4.472;2022-12-29T16:32:31;7.90;99.90
23715;DHT22;12036;50.858;4.472;2022-12-29T16:35:17;7.80;99.90
23715;DHT22;12036;50.858;4.472;2022-12-29T16:37:43;7.80;99.90
23715;DHT22;12036;50.858;4.472;2022-12-29T16:42:49;7.70;99.90
23715;DHT22;12036;50.858;4.472;2022-12-29T16:47:44;7.70;99.90
23715;DHT22;12036;50.858;4.472;2022-12-29T16:50:13;7.70;99.90
23715;DHT22;12036;50.858;4.472;2022-12-29T16:52:42;7.60;99.90
23715;DHT22;12036;50.858;4.472;2022-12-29T16:55:16;7.60;99.90
23715;DHT22;12036;50.858;4.472;2022-12-29T16:57:43;7.60;99.90
23715;DHT22;12036;50.858;4.472;2022-12-29T17:00:44;7.70;99.90
23715;DHT22;12036;50.858;4.472;2022-12-29T17:03:11;7.70;99.90
23715;DHT22;12036;50.858;4.472;2022-12-29T17:05:37;7.60;99.90
23715;DHT22;12036;50.858;4.472;2022-12-29T17:08:02;7.70;99.90
23715;DHT22;12036;50.858;4.472;2022-12-29T17:10:28;7.60;99.90
23715;DHT22;12036;50.858;4.472;2022-12-29T17:13:13;7.60;99.90
23715;DHT22;12036;50.858;4.472;2022-12-29T17:15:38;7.60;99.90
23715;DHT22;12036;50.858;4.472;2022-12-29T17:18:04;7.50;99.90
23715;DHT22;12036;50.858;4.472;2022-12-29T17:20:31;7.50;99.90
23715;DHT22;12036;50.858;4.472;2022-12-29T17:22:57;7.70;99.90
23715;DHT22;12036;50.858;4.472;2022-12-29T17:25:35;7.80;99.90
23715;DHT22;12036;50.858;4.472;2022-12-29T17:28:11;7.70;99.90
23715;DHT22;12036;50.858;4.472;2022-12-29T17:30:40;7.90;99.90
23715;DHT22;12036;50.858;4.472;2022-12-29T17:33:11;7.90;99.90
23715;DHT22;12036;50.858;4.472;2022-12-29T17:35:37;7.90;99.90
23715;DHT22;12036;50.858;4.472;2022-12-29T17:38:21;7.90;99.90
23715;DHT22;12036;50.858;4.472;2022-12-29T17:40:48;8.00;99.90
23715;DHT22;12036;50.858;4.472;2022-12-29T17:43:15;8.00;99.90
23715;DHT22;12036;50.858;4.472;2022-12-29T17:45:42;8.10;99.90
23715;DHT22;12036;50.858;4.472;2022-12-29T17:48:16;7.90;99.90
23715;DHT22;12036;50.858;4.472;2022-12-29T17:50:42;7.80;99.90
23715;DHT22;12036;50.858;4.472;2022-12-29T17:53:20;7.90;99.90
23715;DHT22;12036;50.858;4.472;2022-12-29T17:55:46;7.90;99.90
23715;DHT22;12036;50.858;4.472;2022-12-29T17:58:20;8.00;99.90
23715;DHT22;12036;50.858;4.472;2022-12-29T18:00:48;7.90;99.90
23715;DHT22;12036;50.858;4.472;2022-12-29T18:03:35;7.90;99.90
23715;DHT22;12036;50.858;4.472;2022-12-29T18:06:01;7.90;99.90
23715;DHT22;12036;50.858;4.472;2022-12-29T18:08:29;7.90;99.90
23715;DHT22;12036;50.858;4.472;2022-12-29T18:10:55;7.90;99.90
23715;DHT22;12036;50.858;4.472;2022-12-29T18:13:25;7.80;99.90
23715;DHT22;12036;50.858;4.472;2022-12-29T18:15:52;7.80;99.90
23715;DHT22;12036;50.858;4.472;2022-12-29T18:18:20;7.80;99.90
23715;DHT22;12036;50.858;4.472;2022-12-29T18:20:47;7.90;99.90
23715;DHT22;12036;50.858;4.472;2022-12-29T18:23:21;8.00;99.90